Flight Track Log - Related Links

Times and Time Zones

All times are in EDT time to prevent confusion due to time zone crossing. See the N1322L flight status page for this flight to view local times or setup timezone preferences in your user account.

Time Position Orientation Groundspeed Altitude Reporting Facility
EDT Latitude Longitude Course Direction KTS MPH feet Rate Location/Type
Thu 10:57:33 AM 38.9675 -93.7597 11° North 122 140 3,600  Level Kansas City Center
Thu 10:58:33 AM 39.0164 -93.7497 North 156 180 4,200 484 Climbing Kansas City Center
Thu 10:59:37 AM 39.0561 -93.7411 10° North 153 176 4,600 384 Climbing Kansas City Center
Thu 11:00:38 AM 39.1044 -93.7275 12° North 157 181 5,000 341 Climbing Kansas City Center
Thu 11:01:00 AM 39.0128 -93.4751 11° North  Level Estimated
Thu 11:01:40 AM 39.1461 -93.7175 11° North 159 183 5,300  Level Kansas City Center
Thu 11:02:00 AM 39.0531 -93.4646 11° North  Level Estimated
Thu 11:02:41 AM 39.1950 -93.7036 12° North 162 186 5,500  Level Kansas City Center
Thu 11:03:45 AM 39.2375 -93.6908 13° North 163 188 5,900 336 Climbing Kansas City Center
Thu 11:04:46 AM 39.2864 -93.6772 12° North 163 188 6,200 295 Climbing Kansas City Center
Thu 11:05:47 AM 39.3306 -93.6639 13° North 165 190 6,500 288 Climbing Kansas City Center
Thu 11:06:51 AM 39.3744 -93.6519 12° North 163 188 6,800 288 Climbing Kansas City Center
Thu 11:07:52 AM 39.4175 -93.6403 12° North 160 184 7,100 295 Climbing Kansas City Center
Thu 11:08:53 AM 39.4608 -93.6283 12° North 161 185 7,400 244 Climbing Kansas City Center
Thu 11:09:55 AM 39.5142 -93.6117 14° North 163 188 7,600 143 Climbing Kansas City Center
Thu 11:10:59 AM 39.5592 -93.5961 15° North 166 191 7,700 194 Climbing Kansas City Center
Thu 11:11:59 AM 39.6050 -93.5839 12° North 168 193 8,000 242 Climbing Kansas City Center
Thu 11:13:03 AM 39.6486 -93.5697 14° North 166 191 8,200 194 Climbing Kansas City Center
Thu 11:14:03 AM 39.6942 -93.5578 11° North 166 191 8,400 194 Climbing Kansas City Center
Thu 11:15:07 AM 39.7492 -93.5428 12° North 168 193 8,600 192 Climbing Kansas City Center
Thu 11:16:08 AM 39.7950 -93.5283 14° North 169 194 8,800 240 Climbing Kansas City Center
Thu 11:17:12 AM 39.8414 -93.5164 11° North 170 196 9,100 242 Climbing Kansas City Center
Thu 11:18:12 AM 39.8853 -93.5044 12° North 166 191 9,300 198 Climbing Kansas City Center
Thu 11:19:13 AM 39.9294 -93.4897 14° North 166 191 9,500 190 Climbing Kansas City Center
Thu 11:20:18 AM 39.9836 -93.4728 13° North 167 192 9,700 96 Climbing Kansas City Center
Thu 11:21:18 AM 40.0322 -93.4575 14° North 172 198 9,700  Level Kansas City Center
Thu 11:22:22 AM 40.0797 -93.4422 14° North 176 203 9,700  Level Kansas City Center
Thu 11:23:22 AM 40.1278 -93.4256 15° North 178 205 9,700  Level Kansas City Center
Thu 11:24:25 AM 40.1764 -93.4092 14° North 180 207 9,700  Level Kansas City Center
Thu 11:25:27 AM 40.2344 -93.3939 11° North 180 207 9,700  Level Kansas City Center
Thu 11:26:30 AM 40.2825 -93.3792 13° North 179 206 9,700  Level Kansas City Center
Thu 11:27:31 AM 40.3306 -93.3639 14° North 179 206 9,700  Level Kansas City Center
Thu 11:28:34 AM 40.3797 -93.3492 13° North 180 207 9,700  Level Kansas City Center
Thu 11:29:35 AM 40.4272 -93.3336 14° North 179 206 9,700  Level Kansas City Center
Thu 11:30:38 AM 40.4758 -93.3189 13° North 179 206 9,700  Level Kansas City Center
Thu 11:31:39 AM 40.5344 -93.3022 12° North 180 207 9,700  Level Kansas City Center
Thu 11:32:42 AM 40.5828 -93.2867 14° North 180 207 9,700  Level Kansas City Center
Thu 11:33:42 AM 40.6314 -93.2733 12° North 180 207 9,700  Level Kansas City Center
Thu 11:34:46 AM 40.6792 -93.2581 14° North 179 206 9,700  Level Kansas City Center
Thu 11:35:47 AM 40.7272 -93.2442 12° North 179 206 9,700 -98 Level Kansas City Center
Thu 11:36:48 AM 40.7761 -93.2300 12° North 179 206 9,500  Descending Kansas City Center
Thu 11:38:18 AM 40.8619 -93.2031 13° North 179 206 9,700 94 Climbing Minneapolis Center
Thu 11:38:55 AM 40.8833 -93.1953 15° North 200 230 9,700  Level Chicago Center
Thu 11:39:57 AM 40.9317 -93.1803 13° North 181 208 9,700  Level Chicago Center
Thu 11:41:25 AM 41.0125 -93.1569 12° North 181 208 9,700  Level Minneapolis Center
Thu 11:42:27 AM 41.0653 -93.1422 12° North 180 207 9,700  Level Minneapolis Center
Thu 11:43:29 AM 41.1147 -93.1289 11° North 182 209 9,700  Level Minneapolis Center
Thu 11:44:31 AM 41.1661 -93.1108 15° North 178 205 9,700  Level Minneapolis Center
Thu 11:45:33 AM 41.2150 -93.0958 13° North 180 207 9,700  Level Minneapolis Center
Thu 11:46:35 AM 41.2672 -93.0789 14° North 180 207 9,700  Level Minneapolis Center
Thu 11:47:37 AM 41.3147 -93.0633 14° North 178 205 9,700  Level Minneapolis Center
Thu 11:48:39 AM 41.3667 -93.0472 13° North 178 205 9,700  Level Minneapolis Center
Thu 11:49:41 AM 41.4139 -93.0306 15° North 177 204 9,700  Level Minneapolis Center
Thu 11:50:43 AM 41.4639 -93.0131 15° North 175 201 9,700  Level Minneapolis Center
Thu 11:51:45 AM 41.5125 -92.9972 14° North 178 205 9,700  Level Minneapolis Center
Thu 11:52:47 AM 41.5644 -92.9800 14° North 179 206 9,700  Level Minneapolis Center
Thu 11:53:50 AM 41.6131 -92.9644 13° North 181 208 9,700  Level Minneapolis Center
Thu 11:54:52 AM 41.6608 -92.9500 13° North 177 204 9,700  Level Minneapolis Center
Thu 11:55:54 AM 41.7108 -92.9339 14° North 176 203 9,700  Level Minneapolis Center
Thu 11:56:56 AM 41.7575 -92.9158 16° North 175 201 9,700  Level Minneapolis Center
Thu 11:57:58 AM 41.8056 -92.9014 13° North 176 203 9,700  Level Minneapolis Center
Thu 11:59:00 AM 41.8536 -92.8853 14° North 178 205 9,700  Level Minneapolis Center
Thu 12:00:02 PM 41.9017 -92.8694 14° North 179 206 9,700  Level Minneapolis Center
Thu 12:01:04 PM 41.9569 -92.8558 10° North 179 206 9,700  Level Minneapolis Center
Thu 12:02:06 PM 42.0056 -92.8406 13° North 181 208 9,700  Level Minneapolis Center
Thu 12:03:07 PM 42.0522 -92.8219 16° North 177 204 9,700  Level Chicago Center
Thu 12:04:09 PM 42.1003 -92.8061 14° North 178 205 9,700  Level Chicago Center
Thu 12:05:11 PM 42.1572 -92.7858 15° North 178 205 9,700  Level Chicago Center
Thu 12:06:13 PM 42.2044 -92.7686 15° North 177 204 9,700  Level Chicago Center
Thu 12:07:15 PM 42.2531 -92.7525 14° North 178 205 9,700  Level Chicago Center
Thu 12:08:17 PM 42.3008 -92.7358 14° North 178 205 9,700  Level Chicago Center
Thu 12:09:19 PM 42.3497 -92.7214 12° North 179 206 9,700  Level Chicago Center
Thu 12:10:21 PM 42.4075 -92.7033 13° North 179 206 9,700  Level Chicago Center
Thu 12:11:23 PM 42.4561 -92.6889 12° North 180 207 9,700  Level Chicago Center
Thu 12:12:26 PM 42.5044 -92.6744 12° North 179 206 9,700  Level Chicago Center
Thu 12:13:28 PM 42.5517 -92.6594 13° North 178 205 9,700  Level Chicago Center
Thu 12:14:30 PM 42.5997 -92.6439 13° North 178 205 9,700  Level Chicago Center
Thu 12:15:32 PM 42.6597 -92.6267 12° North 181 208 9,700  Level Chicago Center
Thu 12:16:34 PM 42.7078 -92.6103 14° North 181 208 9,700  Level Chicago Center
Thu 12:17:37 PM 42.7569 -92.5922 15° North 182 209 9,700  Level Chicago Center
Thu 12:18:38 PM 42.8056 -92.5753 14° North 182 209 9,700 -49 Level Chicago Center
Thu 12:19:40 PM 42.8542 -92.5592 14° North 181 208 9,600 -48 Descending Chicago Center
Thu 12:20:42 PM 42.9128 -92.5394 14° North 182 209 9,600  Level Chicago Center
Thu 12:21:44 PM 42.9622 -92.5206 16° North 183 211 9,600  Level Chicago Center
Thu 12:22:46 PM 43.0111 -92.5053 13° North 183 211 9,600 48 Level Chicago Center
Thu 12:23:50 PM 43.0631 -92.4875 14° North 183 211 9,700 48 Climbing Minneapolis Center
Thu 12:24:52 PM 43.1208 -92.4656 15° North 182 209 9,700  Level Minneapolis Center
Thu 12:25:54 PM 43.1692 -92.4489 14° North 180 207 9,700  Level Minneapolis Center
Thu 12:26:56 PM 43.2169 -92.4358 11° North 182 209 9,700  Level Minneapolis Center
Thu 12:27:58 PM 43.2675 -92.4197 13° North 181 208 9,700 -48 Level Minneapolis Center
Thu 12:29:00 PM 43.3256 -92.4003 14° North 182 209 9,600 -48 Descending Minneapolis Center
Thu 12:30:02 PM 43.3767 -92.3828 14° North 181 208 9,600  Level Minneapolis Center
Thu 12:31:04 PM 43.4258 -92.3681 12° North 182 209 9,600  Level Minneapolis Center
Thu 12:32:06 PM 43.4783 -92.3525 12° North 181 208 9,600  Level Minneapolis Center
Thu 12:33:08 PM 43.5264 -92.3353 15° North 181 208 9,600  Level Minneapolis Center
Thu 12:34:10 PM 43.5786 -92.3181 13° North 180 207 9,600  Level Minneapolis Center
Thu 12:35:12 PM 43.6272 -92.3017 14° North 181 208 9,600  Level Minneapolis Center
Thu 12:36:15 PM 43.6783 -92.2833 15° North 180 207 9,600  Level Minneapolis Center
Thu 12:37:17 PM 43.7261 -92.2672 14° North 178 205 9,600  Level Minneapolis Center
Thu 12:38:19 PM 43.7775 -92.2481 15° North 179 206 9,600  Level Minneapolis Center
Thu 12:39:21 PM 43.8297 -92.2297 14° North 182 209 9,600  Level Minneapolis Center
Thu 12:40:23 PM 43.8775 -92.2119 15° North 180 207 9,600  Level Minneapolis Center
Thu 12:41:25 PM 43.9289 -92.1942 14° North 179 206 9,600  Level Minneapolis Center
Thu 12:42:27 PM 43.9767 -92.1792 13° North 179 206 9,600  Level Minneapolis Center
Thu 12:43:29 PM 44.0283 -92.1628 13° North 180 207 9,600  Level Minneapolis Center
Thu 12:44:31 PM 44.0775 -92.1461 14° North 180 207 9,600  Level Minneapolis Center
Thu 12:45:33 PM 44.1297 -92.1308 12° North 181 208 9,600  Level Minneapolis Center
Thu 12:46:35 PM 44.1783 -92.1156 13° North 182 209 9,600  Level Minneapolis Center
Thu 12:47:37 PM 44.2308 -92.0989 13° North 185 213 9,600  Level Minneapolis Center
Thu 12:48:39 PM 44.2786 -92.0842 12° North 182 209 9,600  Level Minneapolis Center
Thu 12:49:41 PM 44.3275 -92.0678 13° North 180 207 9,600  Level Minneapolis Center
Thu 12:50:44 PM 44.3764 -92.0525 13° North 180 207 9,600  Level Minneapolis Center
Thu 12:51:46 PM 44.4350 -92.0300 15° North 185 213 9,600  Level Minneapolis Center
Thu 12:52:48 PM 44.4853 -92.0078 18° North 183 211 9,600  Level Minneapolis Center
Thu 12:53:50 PM 44.5325 -91.9878 17° North 181 208 9,600 -48 Level Minneapolis Center
Thu 12:54:52 PM 44.5803 -91.9667 17° North 180 207 9,500 -145 Descending Minneapolis Center
Thu 12:55:54 PM 44.6325 -91.9458 16° North 188 216 9,300 -194 Descending Minneapolis Center
Thu 12:56:56 PM 44.6831 -91.9269 15° North 189 217 9,100 -194 Descending Minneapolis Center
Thu 12:57:58 PM 44.7442 -91.9028 16° North 190 219 8,900 -145 Descending Minneapolis Center
Thu 12:59:00 PM 44.7944 -91.8861 13° North 187 215 8,800 -145 Descending Minneapolis Center
Thu 01:00:02 PM 44.8453 -91.8675 15° North 188 216 8,600 -194 Descending Minneapolis Center
Thu 01:01:04 PM 44.8956 -91.8500 14° North 188 216 8,400 -194 Descending Minneapolis Center
Thu 01:02:06 PM 44.9458 -91.8314 15° North 187 215 8,200 -194 Descending Minneapolis Center
Thu 01:03:08 PM 45.0089 -91.8111 13° North 190 219 8,000 -194 Descending Minneapolis Center
Thu 01:04:10 PM 45.0608 -91.7944 13° North 191 220 7,800 -192 Descending Minneapolis Center
Thu 01:05:13 PM 45.1122 -91.7769 14° North 192 221 7,600 -192 Descending Minneapolis Center
Thu 01:06:15 PM 45.1636 -91.7603 13° North 191 220 7,400 -145 Descending Minneapolis Center
Thu 01:07:17 PM 45.2139 -91.7414 15° North 190 219 7,300 -145 Descending Minneapolis Center
Thu 01:08:19 PM 45.2650 -91.7236 14° North 190 219 7,100 1,065 Descending Minneapolis Center
Thu 01:09:21 PM 45.3292 -91.7017 14° North 192 221 9,500 1,161 Climbing Minneapolis Center
Thu 01:10:23 PM 45.3814 -91.6836 14° North 193 222 9,500  Level Minneapolis Center
Thu 01:11:25 PM 45.4367 -91.6683 11° North 196 226 9,500 -1,694 Level Minneapolis Center
Thu 01:12:27 PM 45.4894 -91.6489 14° North 194 223 6,000  Descending Minneapolis Center
Thu 01:13:29 PM 45.5417 -91.6344 11° North 196 226 9,500 -263 Climbing Minneapolis Center
Thu 01:14:44 PM 45.6150 -91.6064 15° North 197 227 5,400 -1,796 Descending Minneapolis Center
Thu 01:15:46 PM 45.6664 -91.5919 11° North 198 228 5,400  Level Minneapolis Center
Thu 01:17:00 PM 45.7197 -91.5619 21° North  Level FlightAware Approximate
Thu 01:24:00 PM 46.0167 -91.4333 North  Level FlightAware Approximate
Thu 01:25:00 PM 46.0253 -91.4443 North  Level Estimated
Thu 01:26:00 PM 46.0253 -91.4443 North  Level Estimated
Thu 01:27:00 PM 46.0253 -91.4443 North  Level Estimated
Thu 01:28:00 PM 46.0253 -91.4443 North  Level Estimated
Thu 01:29:00 PM 46.0253 -91.4443 North  Level Estimated
Thu 01:30:00 PM 46.0253 -91.4443 North  Level Estimated

Login

Don't have an account? Register now (free) for customized features, flight alerts, and more!